createdAt,value
2017-06-27T00:00:03.664Z,1006.24
2017-06-27T00:01:05.012Z,1006.25
2017-06-27T00:02:06.320Z,1006.22
2017-06-27T00:03:07.654Z,1006.22
2017-06-27T00:04:08.893Z,1006.2
2017-06-27T00:05:10.213Z,1006.22
2017-06-27T00:06:11.494Z,1006.17
2017-06-27T00:07:12.736Z,1006.15
2017-06-27T00:08:14.015Z,1006.2
2017-06-27T00:09:15.278Z,1006.18
2017-06-27T00:10:16.495Z,1006.18
2017-06-27T00:11:17.843Z,1006.24
2017-06-27T00:12:19.095Z,1006.21
2017-06-27T00:13:20.401Z,1006.24
2017-06-27T00:14:21.659Z,1006.24
2017-06-27T00:15:22.954Z,1006.23
2017-06-27T00:16:24.192Z,1006.22
2017-06-27T00:17:25.747Z,1006.23
2017-06-27T00:18:27.169Z,1006.24
2017-06-27T00:19:28.440Z,1006.22
2017-06-27T00:20:29.685Z,1006.2
2017-06-27T00:21:30.973Z,1006.26
2017-06-27T00:22:32.319Z,1006.23
2017-06-27T00:23:33.623Z,1006.22
2017-06-27T00:24:34.900Z,1006.23
2017-06-27T00:25:36.156Z,1006.26
2017-06-27T00:26:37.447Z,1006.24
2017-06-27T00:27:38.816Z,1006.24
2017-06-27T00:28:40.120Z,1006.26
2017-06-27T00:29:41.366Z,1006.28
2017-06-27T00:30:42.681Z,1006.24
2017-06-27T00:31:43.954Z,1006.24
2017-06-27T00:32:45.217Z,1006.2
2017-06-27T00:33:46.544Z,1006.2
2017-06-27T00:34:47.855Z,1006.22
2017-06-27T00:35:49.130Z,1006.2
2017-06-27T00:36:50.392Z,1006.16
2017-06-27T00:37:51.761Z,1006.14
2017-06-27T00:38:53.079Z,1006.15
2017-06-27T00:39:54.464Z,1006.15
2017-06-27T00:40:55.754Z,1006.13
2017-06-27T00:41:57.034Z,1006.14
2017-06-27T00:42:58.312Z,1006.14
2017-06-27T00:43:59.683Z,1006.13
2017-06-27T00:45:00.952Z,1006.12
2017-06-27T00:46:02.275Z,1006.11
2017-06-27T00:47:03.501Z,1006.1
2017-06-27T00:48:04.787Z,1006.09
2017-06-27T00:49:06.047Z,1006.08
2017-06-27T00:50:07.292Z,1006.04
2017-06-27T00:51:08.587Z,1006.04
2017-06-27T00:52:09.857Z,1006.01
2017-06-27T00:53:11.148Z,1006.04
2017-06-27T00:54:12.450Z,1006.06
2017-06-27T00:55:13.702Z,1006.04
2017-06-27T00:56:15.159Z,1006.03
2017-06-27T00:57:16.360Z,1006.07
2017-06-27T00:58:17.677Z,1006.08
2017-06-27T00:59:18.950Z,1006.03
2017-06-27T01:00:20.226Z,1006.05
2017-06-27T01:01:21.473Z,1006
2017-06-27T01:02:22.737Z,1005.99
2017-06-27T01:03:24.026Z,1005.99
2017-06-27T01:04:25.273Z,1005.96
2017-06-27T01:05:26.532Z,1005.94
2017-06-27T01:06:27.857Z,1005.95
2017-06-27T01:07:29.152Z,1006
2017-06-27T01:08:30.459Z,1006.04
2017-06-27T01:09:31.779Z,1006.02
2017-06-27T01:10:33.075Z,1006.05
2017-06-27T01:11:34.375Z,1006.03
2017-06-27T01:12:35.619Z,1006.07
2017-06-27T01:13:36.904Z,1006.05
2017-06-27T01:14:38.191Z,1006.06
2017-06-27T01:15:39.481Z,1006.01
2017-06-27T01:16:40.727Z,1006.02
2017-06-27T01:17:42.154Z,1006
2017-06-27T01:18:43.534Z,1005.97
2017-06-27T01:19:44.974Z,1005.98
2017-06-27T01:20:46.315Z,1005.96
2017-06-27T01:21:47.578Z,1005.93
2017-06-27T01:22:48.860Z,1005.93
2017-06-27T01:23:50.086Z,1005.94
2017-06-27T01:24:51.345Z,1005.92
2017-06-27T01:25:52.625Z,1005.91
2017-06-27T01:26:53.935Z,1005.9
2017-06-27T01:27:55.261Z,1005.92
2017-06-27T01:28:56.530Z,1005.9
2017-06-27T01:29:57.855Z,1005.91
2017-06-27T01:30:59.222Z,1005.9
2017-06-27T01:32:00.491Z,1005.89
2017-06-27T01:33:01.808Z,1005.83
2017-06-27T01:34:03.041Z,1005.88
2017-06-27T01:35:04.318Z,1005.86
2017-06-27T01:36:05.830Z,1005.85
2017-06-27T01:37:07.147Z,1005.85
2017-06-27T01:38:08.432Z,1005.85
2017-06-27T01:39:09.744Z,1005.83
2017-06-27T01:40:11.047Z,1005.8
2017-06-27T01:41:12.284Z,1005.85
2017-06-27T01:42:13.563Z,1005.86
2017-06-27T01:43:14.810Z,1005.86
2017-06-27T01:44:16.139Z,1005.86
2017-06-27T01:45:17.400Z,1005.83
2017-06-27T01:46:18.693Z,1005.86
2017-06-27T01:47:19.986Z,1005.84
2017-06-27T01:48:21.329Z,1005.87
2017-06-27T01:49:22.524Z,1005.88
2017-06-27T01:50:23.787Z,1005.83
2017-06-27T01:51:25.172Z,1005.82
2017-06-27T01:52:26.431Z,1005.81
2017-06-27T01:53:27.754Z,1005.82
2017-06-27T01:54:29.167Z,1005.81
2017-06-27T01:55:30.414Z,1005.83
2017-06-27T01:56:31.704Z,1005.84
2017-06-27T01:57:32.971Z,1005.83
2017-06-27T01:58:34.213Z,1005.83
2017-06-27T01:59:35.594Z,1005.8
2017-06-27T02:00:36.914Z,1005.8
2017-06-27T02:01:38.179Z,1005.8
2017-06-27T02:02:39.574Z,1005.77
2017-06-27T02:03:40.822Z,1005.73
2017-06-27T02:04:42.070Z,1005.77
2017-06-27T02:05:43.403Z,1005.77
2017-06-27T02:06:44.679Z,1005.74
2017-06-27T02:07:45.965Z,1005.77
2017-06-27T02:08:47.208Z,1005.71
2017-06-27T02:09:48.487Z,1005.73
2017-06-27T02:10:49.766Z,1005.7
2017-06-27T02:11:51.083Z,1005.7
2017-06-27T02:12:52.362Z,1005.71
2017-06-27T02:13:53.713Z,1005.7
2017-06-27T02:14:55.140Z,1005.65
2017-06-27T02:15:56.402Z,1005.63
2017-06-27T02:16:57.679Z,1005.67
2017-06-27T02:17:58.987Z,1005.64
2017-06-27T02:19:00.414Z,1005.66
2017-06-27T02:20:01.727Z,1005.64
2017-06-27T02:21:03.096Z,1005.59
2017-06-27T02:22:04.363Z,1005.63
2017-06-27T02:23:05.641Z,1005.62
2017-06-27T02:24:06.933Z,1005.6
2017-06-27T02:25:08.226Z,1005.59
2017-06-27T02:26:09.731Z,1005.56
2017-06-27T02:27:10.981Z,1005.56
2017-06-27T02:28:12.219Z,1005.55
2017-06-27T02:29:13.491Z,1005.53
2017-06-27T02:30:14.769Z,1005.56
2017-06-27T02:31:16.082Z,1005.53
2017-06-27T02:32:17.393Z,1005.55
2017-06-27T02:33:18.660Z,1005.57
2017-06-27T02:34:19.957Z,1005.53
2017-06-27T02:35:21.266Z,1005.5
2017-06-27T02:36:22.538Z,1005.49
2017-06-27T02:37:23.808Z,1005.44
2017-06-27T02:38:25.153Z,1005.46
2017-06-27T02:39:26.421Z,1005.45
2017-06-27T02:40:27.717Z,1005.45
2017-06-27T02:41:28.948Z,1005.44
2017-06-27T02:42:30.219Z,1005.4
2017-06-27T02:43:31.496Z,1005.4
2017-06-27T02:44:32.803Z,1005.4
2017-06-27T02:45:34.029Z,1005.39
2017-06-27T02:46:35.299Z,1005.35
2017-06-27T02:47:36.568Z,1005.34
2017-06-27T02:48:37.948Z,1005.38
2017-06-27T02:49:39.243Z,1005.38
2017-06-27T02:50:40.534Z,1005.35
2017-06-27T02:51:41.797Z,1005.32
2017-06-27T02:52:43.136Z,1005.36
2017-06-27T02:53:44.406Z,1005.41
2017-06-27T02:54:45.724Z,1005.4
2017-06-27T02:55:47.006Z,1005.43
2017-06-27T02:56:48.296Z,1005.46
2017-06-27T02:57:49.551Z,1005.46
2017-06-27T02:58:50.828Z,1005.47
2017-06-27T02:59:52.123Z,1005.51
2017-06-27T03:00:53.418Z,1005.53
2017-06-27T03:01:54.719Z,1005.55
2017-06-27T03:02:55.960Z,1005.51
2017-06-27T03:03:57.251Z,1005.53
2017-06-27T03:04:58.518Z,1005.53
2017-06-27T03:05:59.792Z,1005.5
2017-06-27T03:07:01.048Z,1005.51
2017-06-27T03:08:02.303Z,1005.53
2017-06-27T03:09:03.555Z,1005.54
2017-06-27T03:10:04.839Z,1005.54
2017-06-27T03:11:06.202Z,1005.61
2017-06-27T03:12:07.480Z,1005.59
2017-06-27T03:13:08.819Z,1005.59
2017-06-27T03:14:10.079Z,1005.63
2017-06-27T03:15:11.383Z,1005.62
2017-06-27T03:16:12.623Z,1005.65
2017-06-27T03:17:14.025Z,1005.66
2017-06-27T03:18:15.197Z,1005.63
2017-06-27T03:19:16.480Z,1005.63
2017-06-27T03:20:17.763Z,1005.61
2017-06-27T03:21:19.094Z,1005.6
2017-06-27T03:22:20.373Z,1005.62
2017-06-27T03:23:21.622Z,1005.6
2017-06-27T03:24:22.875Z,1005.61
2017-06-27T03:25:24.174Z,1005.63
2017-06-27T03:26:25.439Z,1005.6
2017-06-27T03:27:26.725Z,1005.58
2017-06-27T03:28:28.034Z,1005.58
2017-06-27T03:29:29.339Z,1005.58
2017-06-27T03:30:30.554Z,1005.59
2017-06-27T03:31:31.823Z,1005.58
2017-06-27T03:32:33.104Z,1005.61
2017-06-27T03:33:34.367Z,1005.67
2017-06-27T03:34:35.642Z,1005.65
2017-06-27T03:35:36.932Z,1005.68
2017-06-27T03:36:38.169Z,1005.61
2017-06-27T03:37:39.485Z,1005.63
2017-06-27T03:38:40.805Z,1005.59
2017-06-27T03:39:42.115Z,1005.6
2017-06-27T03:40:43.452Z,1005.61
2017-06-27T03:41:44.743Z,1005.59
2017-06-27T03:42:45.957Z,1005.57
2017-06-27T03:43:47.242Z,1005.54
2017-06-27T03:44:48.506Z,1005.53
2017-06-27T03:45:49.731Z,1005.52
2017-06-27T03:46:51.022Z,1005.5
2017-06-27T03:47:52.339Z,1005.47
2017-06-27T03:48:53.618Z,1005.49
2017-06-27T03:49:54.891Z,1005.45
2017-06-27T03:50:56.148Z,1005.44
2017-06-27T03:51:57.403Z,1005.4
2017-06-27T03:52:58.706Z,1005.39
2017-06-27T03:54:00.055Z,1005.36
2017-06-27T03:55:01.352Z,1005.38
2017-06-27T03:56:02.629Z,1005.38
2017-06-27T03:57:03.853Z,1005.38
2017-06-27T03:58:05.121Z,1005.38
2017-06-27T03:59:06.518Z,1005.34
2017-06-27T04:00:07.805Z,1005.33
2017-06-27T04:01:09.101Z,1005.34
2017-06-27T04:02:10.387Z,1005.38
2017-06-27T04:03:11.650Z,1005.39
2017-06-27T04:04:12.914Z,1005.37
2017-06-27T04:05:14.294Z,1005.34
2017-06-27T04:06:15.602Z,1005.29
2017-06-27T04:07:16.861Z,1005.31
2017-06-27T04:08:18.140Z,1005.27
2017-06-27T04:09:19.415Z,1005.25
2017-06-27T04:10:20.690Z,1005.28
2017-06-27T04:11:21.967Z,1005.27
2017-06-27T04:12:23.401Z,1005.29
2017-06-27T04:13:24.711Z,1005.3
2017-06-27T04:14:26.018Z,1005.32
2017-06-27T04:15:27.263Z,1005.36
2017-06-27T04:16:28.563Z,1005.32
2017-06-27T04:17:29.959Z,1005.35
2017-06-27T04:18:31.232Z,1005.34
2017-06-27T04:19:32.501Z,1005.27
2017-06-27T04:20:33.772Z,1005.29
2017-06-27T04:21:35.043Z,1005.28
2017-06-27T04:22:36.354Z,1005.27
2017-06-27T04:23:37.660Z,1005.26
2017-06-27T04:24:39.027Z,1005.27
2017-06-27T04:25:40.269Z,1005.25
2017-06-27T04:26:41.546Z,1005.27
2017-06-27T04:27:42.790Z,1005.27
2017-06-27T04:28:44.093Z,1005.25
2017-06-27T04:29:45.403Z,1005.25
2017-06-27T04:30:46.708Z,1005.25
2017-06-27T04:31:47.991Z,1005.24
2017-06-27T04:32:49.280Z,1005.24
2017-06-27T04:33:50.532Z,1005.23
2017-06-27T04:34:51.860Z,1005.25
2017-06-27T04:35:53.171Z,1005.19
2017-06-27T04:36:54.400Z,1005.2
2017-06-27T04:37:55.658Z,1005.24
2017-06-27T04:38:56.886Z,1005.23
2017-06-27T04:39:58.167Z,1005.19
2017-06-27T04:40:59.440Z,1005.14
2017-06-27T04:42:00.717Z,1005.16
2017-06-27T04:43:01.954Z,1005.14
2017-06-27T04:44:03.221Z,1005.13
2017-06-27T04:45:04.492Z,1005.09
2017-06-27T04:46:05.892Z,1005.13
2017-06-27T04:47:07.146Z,1005.11
2017-06-27T04:48:08.412Z,1005.11
2017-06-27T04:49:09.733Z,1005.1
2017-06-27T04:50:11.021Z,1005.09
2017-06-27T04:51:12.295Z,1005.07
2017-06-27T04:52:13.604Z,1005.01
2017-06-27T04:53:14.927Z,1005.04
2017-06-27T04:54:16.184Z,1005.02
2017-06-27T04:55:17.449Z,1005.01
2017-06-27T04:56:18.728Z,1005
2017-06-27T04:57:20.045Z,1005.01
2017-06-27T04:58:21.384Z,1004.96
2017-06-27T04:59:22.645Z,1004.99
2017-06-27T05:00:23.896Z,1004.97
2017-06-27T05:01:25.174Z,1004.94
2017-06-27T05:02:26.438Z,1004.94
2017-06-27T05:03:27.687Z,1004.96
2017-06-27T05:04:29.070Z,1005.01
2017-06-27T05:05:30.285Z,1004.97
2017-06-27T05:06:31.580Z,1004.99
2017-06-27T05:07:32.888Z,1004.93
2017-06-27T05:08:34.199Z,1004.91
2017-06-27T05:09:35.503Z,1004.91
2017-06-27T05:10:36.948Z,1004.9
2017-06-27T05:11:38.205Z,1004.86
2017-06-27T05:12:39.484Z,1004.85
2017-06-27T05:13:40.725Z,1004.87
2017-06-27T05:14:42.017Z,1004.91
2017-06-27T05:15:43.311Z,1004.9
2017-06-27T05:16:44.586Z,1004.87
2017-06-27T05:17:45.875Z,1004.94
2017-06-27T05:18:47.254Z,1004.9
2017-06-27T05:19:48.499Z,1004.89
2017-06-27T05:20:49.779Z,1004.87
2017-06-27T05:21:51.092Z,1004.9
2017-06-27T05:22:52.346Z,1004.98
2017-06-27T05:23:53.623Z,1005.05
2017-06-27T05:24:54.876Z,1005.08
2017-06-27T05:25:56.255Z,1004.85
2017-06-27T05:26:57.513Z,1004.94
2017-06-27T05:27:58.795Z,1004.75
2017-06-27T05:29:00.052Z,1004.89
2017-06-27T05:30:01.441Z,1004.95
2017-06-27T05:31:02.714Z,1004.99
2017-06-27T05:32:04.026Z,1004.89
2017-06-27T05:33:05.317Z,1004.98
2017-06-27T05:34:06.578Z,1005.16
2017-06-27T05:35:07.858Z,1005.01
2017-06-27T05:36:09.195Z,1004.95
2017-06-27T05:37:10.464Z,1004.91
2017-06-27T05:38:11.732Z,1004.94
2017-06-27T05:39:13.041Z,1004.97
2017-06-27T05:40:14.303Z,1004.98
2017-06-27T05:41:15.564Z,1004.88
2017-06-27T05:42:16.853Z,1004.84
2017-06-27T05:43:18.207Z,1004.96
2017-06-27T05:44:19.516Z,1005.09
2017-06-27T05:45:20.772Z,1005.1
2017-06-27T05:46:22.045Z,1005.02
2017-06-27T05:47:23.352Z,1005.1
2017-06-27T05:48:24.647Z,1005.01
2017-06-27T05:49:25.919Z,1004.88
2017-06-27T05:50:27.185Z,1004.93
2017-06-27T05:51:28.479Z,1004.96
2017-06-27T05:52:29.722Z,1004.95
2017-06-27T05:53:31.144Z,1005.01
2017-06-27T05:54:32.379Z,1004.93
2017-06-27T05:55:33.696Z,1004.89
2017-06-27T05:56:34.965Z,1004.87
2017-06-27T05:57:36.213Z,1004.94
2017-06-27T05:58:37.556Z,1004.86
2017-06-27T05:59:38.850Z,1004.77
2017-06-27T06:00:40.113Z,1004.84
2017-06-27T06:01:41.412Z,1004.7
2017-06-27T06:02:42.749Z,1004.71
2017-06-27T06:03:44.006Z,1004.71
2017-06-27T06:04:45.427Z,1004.75
2017-06-27T06:05:46.729Z,1004.8
2017-06-27T06:06:48.002Z,1004.62
2017-06-27T06:07:49.309Z,1004.67
2017-06-27T06:08:50.590Z,1004.61
2017-06-27T06:09:51.875Z,1004.54
2017-06-27T06:10:53.180Z,1004.56
2017-06-27T06:11:54.481Z,1004.58
2017-06-27T06:12:55.878Z,1004.66
2017-06-27T06:13:57.179Z,1004.56
2017-06-27T06:14:58.458Z,1004.57
2017-06-27T06:15:59.732Z,1004.58
2017-06-27T06:17:00.999Z,1004.62
2017-06-27T06:18:02.343Z,1004.65
2017-06-27T06:19:03.646Z,1004.63
2017-06-27T06:20:04.959Z,1004.72
2017-06-27T06:21:06.228Z,1004.65
2017-06-27T06:22:07.515Z,1004.72
2017-06-27T06:23:08.772Z,1004.74
2017-06-27T06:24:10.041Z,1004.75
2017-06-27T06:25:11.396Z,1004.73
2017-06-27T06:26:12.669Z,1004.69
2017-06-27T06:27:13.970Z,1004.75
2017-06-27T06:28:15.216Z,1004.76
2017-06-27T06:29:16.531Z,1004.93
2017-06-27T06:30:17.816Z,1004.98
2017-06-27T06:31:19.078Z,1004.87
2017-06-27T06:32:20.394Z,1005.03
2017-06-27T06:33:21.671Z,1004.69
2017-06-27T06:34:22.942Z,1004.68
2017-06-27T06:35:24.215Z,1004.67
2017-06-27T06:36:25.633Z,1004.82
2017-06-27T06:37:26.915Z,1004.74
2017-06-27T06:38:28.232Z,1004.81
2017-06-27T06:39:29.559Z,1004.75
2017-06-27T06:40:30.796Z,1004.84
2017-06-27T06:41:32.079Z,1005.01
2017-06-27T06:42:33.434Z,1005.15
2017-06-27T06:43:34.803Z,1005.16
2017-06-27T06:44:36.070Z,1005.28
2017-06-27T06:45:37.343Z,1005.2
2017-06-27T06:46:38.604Z,1005.4
2017-06-27T06:47:40.048Z,1004.93
2017-06-27T06:48:41.332Z,1004.88
2017-06-27T06:49:42.600Z,1005.07
2017-06-27T06:50:43.841Z,1004.89
2017-06-27T06:51:45.149Z,1005.19
2017-06-27T06:52:46.486Z,1004.94
2017-06-27T06:53:47.812Z,1004.82
2017-06-27T06:54:49.068Z,1005.06
2017-06-27T06:55:50.331Z,1004.61
2017-06-27T06:56:51.587Z,1004.64
2017-06-27T06:57:52.840Z,1004.67
2017-06-27T06:58:54.150Z,1004.89
2017-06-27T06:59:55.392Z,1004.71
2017-06-27T07:00:56.666Z,1004.67
2017-06-27T07:01:57.899Z,1004.66
2017-06-27T07:02:59.213Z,1004.56
2017-06-27T07:04:00.451Z,1004.68
2017-06-27T07:05:01.818Z,1004.73
2017-06-27T07:06:03.181Z,1004.6
2017-06-27T07:07:04.467Z,1004.59
2017-06-27T07:08:05.712Z,1004.59
2017-06-27T07:09:07.027Z,1004.6
2017-06-27T07:10:08.376Z,1004.69
2017-06-27T07:11:09.730Z,1004.63
2017-06-27T07:12:11.021Z,1004.56
2017-06-27T07:13:12.282Z,1004.6
2017-06-27T07:14:13.581Z,1004.61
2017-06-27T07:15:15.048Z,1004.54
2017-06-27T07:16:16.389Z,1004.52
2017-06-27T07:17:17.671Z,1004.57
2017-06-27T07:18:18.934Z,1004.55
2017-06-27T07:19:20.250Z,1004.63
2017-06-27T07:20:21.575Z,1004.54
2017-06-27T07:21:22.863Z,1004.55
2017-06-27T07:22:24.163Z,1004.58
2017-06-27T07:23:25.488Z,1004.61
2017-06-27T07:24:26.798Z,1004.63
2017-06-27T07:25:28.080Z,1004.7
2017-06-27T07:26:29.360Z,1004.73
2017-06-27T07:27:30.632Z,1004.61
2017-06-27T07:28:31.894Z,1004.76
2017-06-27T07:29:33.139Z,1004.63
2017-06-27T07:30:34.447Z,1004.62
2017-06-27T07:31:35.722Z,1004.62
2017-06-27T07:32:37.130Z,1004.66
2017-06-27T07:33:38.320Z,1004.63
2017-06-27T07:34:39.593Z,1004.7
2017-06-27T07:35:40.838Z,1004.63
2017-06-27T07:36:42.166Z,1004.63
2017-06-27T07:37:43.490Z,1004.71
2017-06-27T07:38:44.939Z,1004.69
2017-06-27T07:39:46.085Z,1004.81
2017-06-27T07:40:47.379Z,1004.81
2017-06-27T07:41:48.645Z,1004.83
2017-06-27T07:42:49.975Z,1004.85
2017-06-27T07:43:51.367Z,1004.66
2017-06-27T07:44:52.672Z,1004.76
2017-06-27T07:45:53.945Z,1004.77
2017-06-27T07:46:55.254Z,1004.74
2017-06-27T07:47:56.540Z,1004.72
2017-06-27T07:48:57.904Z,1004.68
2017-06-27T07:49:59.309Z,1004.61
2017-06-27T07:51:00.566Z,1004.55
2017-06-27T07:52:01.864Z,1004.56
2017-06-27T07:53:03.124Z,1004.54
2017-06-27T07:54:04.542Z,1004.5
2017-06-27T07:55:06.100Z,1004.44
2017-06-27T07:56:07.313Z,1004.42
2017-06-27T07:57:08.582Z,1004.4
2017-06-27T07:58:09.895Z,1004.42
2017-06-27T07:59:11.303Z,1004.38
2017-06-27T08:00:12.638Z,1004.33
2017-06-27T08:01:13.910Z,1004.31
2017-06-27T08:02:15.185Z,1004.28
2017-06-27T08:03:16.537Z,1004.33
2017-06-27T08:04:17.904Z,1004.33
2017-06-27T08:05:19.175Z,1004.34
2017-06-27T08:06:20.452Z,1004.34
2017-06-27T08:07:21.723Z,1004.35
2017-06-27T08:08:22.996Z,1004.29
2017-06-27T08:09:24.261Z,1004.32
2017-06-27T08:10:25.628Z,1004.37
2017-06-27T08:11:26.985Z,1004.3
2017-06-27T08:12:28.216Z,1004.31
2017-06-27T08:13:29.476Z,1004.33
2017-06-27T08:14:30.786Z,1004.27
2017-06-27T08:15:32.062Z,1004.33
2017-06-27T08:16:33.324Z,1004.4
2017-06-27T08:17:34.625Z,1004.44
2017-06-27T08:18:35.926Z,1004.47
2017-06-27T08:19:37.215Z,1004.43
2017-06-27T08:20:38.488Z,1004.35
2017-06-27T08:21:39.822Z,1004.27
2017-06-27T08:22:41.204Z,1004.32
2017-06-27T08:23:42.442Z,1004.3
2017-06-27T08:24:43.775Z,1004.25
2017-06-27T08:25:45.071Z,1004.3
2017-06-27T08:26:46.374Z,1004.3
2017-06-27T08:27:47.741Z,1004.31
2017-06-27T08:28:48.996Z,1004.32
2017-06-27T08:29:50.265Z,1004.35
2017-06-27T08:30:51.576Z,1004.33
2017-06-27T08:31:52.888Z,1004.36
2017-06-27T08:32:54.110Z,1004.33
2017-06-27T08:33:55.411Z,1004.27
2017-06-27T08:34:56.666Z,1004.31
2017-06-27T08:35:57.973Z,1004.22
2017-06-27T08:36:59.282Z,1004.17
2017-06-27T08:38:00.625Z,1004.21
2017-06-27T08:39:01.985Z,1004.17
2017-06-27T08:40:03.379Z,1004.28
2017-06-27T08:41:04.608Z,1004.24
2017-06-27T08:42:05.888Z,1004.19
2017-06-27T08:43:07.184Z,1004.18
2017-06-27T08:44:08.551Z,1004.19
2017-06-27T08:45:09.923Z,1004.22
2017-06-27T08:46:11.261Z,1004.2
2017-06-27T08:47:12.537Z,1004.21
2017-06-27T08:48:13.845Z,1004.31
2017-06-27T08:49:15.271Z,1004.31
2017-06-27T08:50:16.466Z,1004.76
2017-06-27T08:51:17.723Z,1004.33
2017-06-27T08:52:19.009Z,1004.59
2017-06-27T08:53:20.301Z,1004.31
2017-06-27T08:54:21.690Z,1004.31
2017-06-27T08:55:23.011Z,1004.46
2017-06-27T08:56:24.255Z,1004.57
2017-06-27T08:57:25.519Z,1005.09
2017-06-27T08:58:26.766Z,1004.59
2017-06-27T08:59:28.071Z,1004.15
2017-06-27T09:00:29.341Z,1004.18
2017-06-27T09:01:30.583Z,1004.09
2017-06-27T09:02:31.937Z,1004.11
2017-06-27T09:03:33.173Z,1004.08
2017-06-27T09:04:34.478Z,1004.1
2017-06-27T09:05:35.734Z,1004.05
2017-06-27T09:06:37.031Z,1004
2017-06-27T09:07:38.311Z,1003.97
2017-06-27T09:08:39.576Z,1003.94
2017-06-27T09:09:40.829Z,1003.98
2017-06-27T09:10:42.230Z,1003.93
2017-06-27T09:11:43.525Z,1003.91
2017-06-27T09:12:44.799Z,1003.85
2017-06-27T09:13:46.073Z,1003.84
2017-06-27T09:14:47.462Z,1003.82
2017-06-27T09:15:48.701Z,1003.83
2017-06-27T09:16:49.954Z,1003.79
2017-06-27T09:17:51.258Z,1003.79
2017-06-27T09:18:52.579Z,1003.8
2017-06-27T09:19:54.019Z,1003.84
2017-06-27T09:20:55.378Z,1003.75
2017-06-27T09:21:56.635Z,1003.75
2017-06-27T09:22:57.926Z,1003.75
2017-06-27T09:23:59.294Z,1003.78
2017-06-27T09:25:00.514Z,1003.77
2017-06-27T09:26:01.795Z,1003.73
2017-06-27T09:27:03.054Z,1003.74
2017-06-27T09:28:04.366Z,1003.71
2017-06-27T09:29:05.661Z,1003.74
2017-06-27T09:30:06.927Z,1003.71
2017-06-27T09:31:08.340Z,1003.7
2017-06-27T09:32:09.624Z,1003.73
2017-06-27T09:33:10.869Z,1003.76
2017-06-27T09:34:12.176Z,1003.75
2017-06-27T09:35:13.466Z,1003.77
2017-06-27T09:36:14.777Z,1003.72
2017-06-27T09:37:16.050Z,1003.73
2017-06-27T09:38:17.362Z,1003.75
2017-06-27T09:39:18.625Z,1003.69
2017-06-27T09:40:19.892Z,1003.69
2017-06-27T09:41:21.236Z,1003.68
2017-06-27T09:42:22.525Z,1003.71
2017-06-27T09:43:23.782Z,1003.69
2017-06-27T09:44:25.026Z,1003.66
2017-06-27T09:45:26.305Z,1003.6
2017-06-27T09:46:27.674Z,1003.6
2017-06-27T09:47:28.915Z,1003.63
2017-06-27T09:48:30.158Z,1003.67
2017-06-27T09:49:31.444Z,1003.7
2017-06-27T09:50:32.790Z,1003.68
2017-06-27T09:51:34.039Z,1003.66
2017-06-27T09:52:35.352Z,1003.66
2017-06-27T09:53:36.619Z,1003.63
2017-06-27T09:54:37.898Z,1003.61
2017-06-27T09:55:39.165Z,1003.64
2017-06-27T09:56:40.468Z,1003.65
2017-06-27T09:57:41.713Z,1003.61
2017-06-27T09:58:43.004Z,1003.63
2017-06-27T09:59:44.317Z,1003.63
2017-06-27T10:00:45.615Z,1003.65
2017-06-27T10:01:46.884Z,1003.64
2017-06-27T10:02:48.167Z,1003.61
2017-06-27T10:03:49.488Z,1003.57
2017-06-27T10:04:50.755Z,1003.59
2017-06-27T10:05:52.040Z,1003.52
2017-06-27T10:06:53.400Z,1003.49
2017-06-27T10:07:54.662Z,1003.55
2017-06-27T10:08:55.941Z,1003.55
2017-06-27T10:09:57.274Z,1003.55
2017-06-27T10:10:58.496Z,1003.52
2017-06-27T10:11:59.808Z,1003.5
2017-06-27T10:13:01.025Z,1003.49
2017-06-27T10:14:02.264Z,1003.48
2017-06-27T10:15:03.583Z,1003.54
2017-06-27T10:16:04.842Z,1003.52
2017-06-27T10:17:06.131Z,1003.51
2017-06-27T10:18:07.526Z,1003.52
2017-06-27T10:19:08.773Z,1003.51
2017-06-27T10:20:10.042Z,1003.52
2017-06-27T10:21:11.287Z,1003.53
2017-06-27T10:22:12.574Z,1003.56
2017-06-27T10:23:13.907Z,1003.58
2017-06-27T10:24:15.168Z,1003.55
2017-06-27T10:25:16.432Z,1003.59
2017-06-27T10:26:17.680Z,1003.54
2017-06-27T10:27:18.934Z,1003.56
2017-06-27T10:28:20.246Z,1003.52
2017-06-27T10:29:21.521Z,1003.46
2017-06-27T10:30:22.837Z,1003.5
2017-06-27T10:31:24.077Z,1003.52
2017-06-27T10:32:25.553Z,1003.58
2017-06-27T10:33:26.810Z,1003.45
2017-06-27T10:34:28.176Z,1003.43
2017-06-27T10:35:29.487Z,1003.41
2017-06-27T10:36:30.717Z,1003.37
2017-06-27T10:37:31.978Z,1003.37
2017-06-27T10:38:33.307Z,1003.32
2017-06-27T10:39:34.608Z,1003.31
2017-06-27T10:40:35.958Z,1003.31
2017-06-27T10:41:37.188Z,1003.34
2017-06-27T10:42:38.454Z,1003.41
2017-06-27T10:43:39.748Z,1003.38
2017-06-27T10:44:41.032Z,1003.4
2017-06-27T10:45:42.296Z,1003.44
2017-06-27T10:46:43.669Z,1003.34
2017-06-27T10:47:44.924Z,1003.34
2017-06-27T10:48:46.199Z,1003.29
2017-06-27T10:49:47.554Z,1003.3
2017-06-27T10:50:48.809Z,1003.3
2017-06-27T10:51:50.080Z,1003.26
2017-06-27T10:52:51.333Z,1003.26
2017-06-27T10:53:52.616Z,1003.19
2017-06-27T10:54:53.893Z,1003.18
2017-06-27T10:55:55.220Z,1003.13
2017-06-27T10:56:56.839Z,1003.11
2017-06-27T10:57:58.018Z,1003.1
2017-06-27T10:58:59.271Z,1003.05
2017-06-27T11:00:00.562Z,1003
2017-06-27T11:01:01.862Z,1002.99
2017-06-27T11:02:03.162Z,1002.98
2017-06-27T11:03:04.401Z,1002.96
2017-06-27T11:04:05.717Z,1002.98
2017-06-27T11:05:06.965Z,1003.03
2017-06-27T11:06:08.230Z,1003.01
2017-06-27T11:07:09.563Z,1003.05
2017-06-27T11:08:10.816Z,1003
2017-06-27T11:09:12.093Z,1003.02
2017-06-27T11:10:13.384Z,1002.99
2017-06-27T11:11:14.635Z,1003.02
2017-06-27T11:12:15.903Z,1003.02
2017-06-27T11:13:17.150Z,1002.96
2017-06-27T11:14:18.465Z,1003
2017-06-27T11:15:19.815Z,1003.01
2017-06-27T11:16:21.124Z,1003.03
2017-06-27T11:17:22.429Z,1003.06
2017-06-27T11:18:23.772Z,1003.03
2017-06-27T11:19:25.028Z,1002.94
2017-06-27T11:20:26.379Z,1002.92
2017-06-27T11:21:27.731Z,1002.93
2017-06-27T11:22:28.966Z,1002.96
2017-06-27T11:23:30.299Z,1002.93
2017-06-27T11:24:31.629Z,1002.95
2017-06-27T11:25:32.883Z,1003.03
2017-06-27T11:26:34.384Z,1002.99
2017-06-27T11:27:35.716Z,1003.05
2017-06-27T11:28:37.003Z,1002.96
2017-06-27T11:29:38.284Z,1002.92
2017-06-27T11:30:39.587Z,1002.9
2017-06-27T11:31:40.900Z,1002.91
2017-06-27T11:32:42.180Z,1002.89
2017-06-27T11:33:43.730Z,1002.82
2017-06-27T11:34:44.880Z,1002.85
2017-06-27T11:35:46.303Z,1002.84
2017-06-27T11:36:47.735Z,1002.78
2017-06-27T11:37:48.999Z,1002.8
2017-06-27T11:38:50.282Z,1002.75
2017-06-27T11:39:51.663Z,1002.73
2017-06-27T11:40:52.959Z,1002.71
2017-06-27T11:41:54.232Z,1002.72
2017-06-27T11:42:55.525Z,1002.74
2017-06-27T11:43:56.780Z,1002.76
2017-06-27T11:44:58.070Z,1002.75
2017-06-27T11:45:59.399Z,1002.81
2017-06-27T11:47:00.657Z,1002.71
2017-06-27T11:48:01.962Z,1002.73
2017-06-27T11:49:03.191Z,1002.73
2017-06-27T11:50:04.468Z,1002.64
2017-06-27T11:51:05.772Z,1002.6
2017-06-27T11:52:07.090Z,1002.6
2017-06-27T11:53:08.384Z,1002.62
2017-06-27T11:54:09.659Z,1002.59
2017-06-27T11:55:10.929Z,1002.62
2017-06-27T11:56:12.298Z,1002.59
2017-06-27T11:57:13.653Z,1002.6
2017-06-27T11:58:14.993Z,1002.57
2017-06-27T11:59:16.300Z,1002.53
2017-06-27T12:00:17.540Z,1002.59
2017-06-27T12:01:18.850Z,1002.58
2017-06-27T12:02:20.120Z,1002.55
2017-06-27T12:03:21.436Z,1002.54
2017-06-27T12:04:22.666Z,1002.52
2017-06-27T12:05:23.947Z,1002.47
2017-06-27T12:06:25.266Z,1002.5
2017-06-27T12:07:26.885Z,1002.44
2017-06-27T12:08:28.172Z,1002.47
2017-06-27T12:09:29.417Z,1002.41
2017-06-27T12:10:30.707Z,1002.44
2017-06-27T12:11:32.002Z,1002.41
2017-06-27T12:12:33.266Z,1002.4
2017-06-27T12:13:34.520Z,1002.43
2017-06-27T12:14:35.789Z,1002.44
2017-06-27T12:15:37.087Z,1002.43
2017-06-27T12:16:38.347Z,1002.42
2017-06-27T12:17:39.820Z,1002.4
2017-06-27T12:18:41.134Z,1002.4
2017-06-27T12:19:42.491Z,1002.36
2017-06-27T12:20:43.800Z,1002.39
2017-06-27T12:21:45.049Z,1002.39
2017-06-27T12:22:46.336Z,1002.38
2017-06-27T12:23:47.608Z,1002.43